Terminal Aerodrome Forecast
Issued by NWS Binghamton, NY

Current Version | Previous Version | Text Only | Print | Product List | Glossary On
Versions: 1 2 3 4 5 6 7 8 9 10 11 12 13 14 15 16 17 18 19 20 21 22 23 24
000
FTUS41 KBGM 200800 AAA
TAFBGM
TAF AMD
KBGM 200847Z 2009/2106 18005KT P6SM FEW060 BKN250
     FM201600 20006KT P6SM BKN050
      TEMPO 2018/2022 4SM -SHRA BR
     FM202200 18006KT 5SM -SHRA BR BKN050 OVC100=

USA.gov is the U.S. government's official web portal to all federal, state and local government web resources and services.